sensor_id;sensor_type;location;lat;lon;timestamp;P1;durP1;ratioP1;P2;durP2;ratioP2
944;SDS011;459;48.676;9.034;2023-06-14T00:02:22;4.80;;;4.40;;
944;SDS011;459;48.676;9.034;2023-06-14T00:04:47;5.53;;;5.03;;
944;SDS011;459;48.676;9.034;2023-06-14T00:07:13;5.33;;;4.83;;
944;SDS011;459;48.676;9.034;2023-06-14T00:09:38;4.93;;;3.90;;
944;SDS011;459;48.676;9.034;2023-06-14T00:12:03;5.47;;;4.93;;
944;SDS011;459;48.676;9.034;2023-06-14T00:14:29;4.87;;;4.47;;
944;SDS011;459;48.676;9.034;2023-06-14T00:16:54;5.00;;;4.50;;
944;SDS011;459;48.676;9.034;2023-06-14T00:19:24;6.10;;;5.13;;
944;SDS011;459;48.676;9.034;2023-06-14T00:21:49;4.60;;;4.20;;
944;SDS011;459;48.676;9.034;2023-06-14T00:24:15;5.93;;;5.07;;
944;SDS011;459;48.676;9.034;2023-06-14T00:26:40;5.30;;;4.80;;
944;SDS011;459;48.676;9.034;2023-06-14T00:29:05;5.17;;;4.67;;
944;SDS011;459;48.676;9.034;2023-06-14T00:31:30;5.15;;;4.68;;
944;SDS011;459;48.676;9.034;2023-06-14T00:33:55;5.53;;;5.00;;
944;SDS011;459;48.676;9.034;2023-06-14T00:36:21;5.70;;;5.20;;
944;SDS011;459;48.676;9.034;2023-06-14T00:38:46;6.43;;;5.20;;
944;SDS011;459;48.676;9.034;2023-06-14T00:41:11;6.13;;;5.03;;
944;SDS011;459;48.676;9.034;2023-06-14T00:43:36;6.10;;;5.53;;
944;SDS011;459;48.676;9.034;2023-06-14T00:46:01;5.57;;;5.07;;
944;SDS011;459;48.676;9.034;2023-06-14T00:48:27;5.10;;;4.60;;
944;SDS011;459;48.676;9.034;2023-06-14T00:50:53;6.60;;;6.00;;
944;SDS011;459;48.676;9.034;2023-06-14T00:53:19;5.33;;;4.83;;
944;SDS011;459;48.676;9.034;2023-06-14T00:55:45;6.10;;;5.50;;
944;SDS011;459;48.676;9.034;2023-06-14T00:58:11;5.60;;;5.00;;
944;SDS011;459;48.676;9.034;2023-06-14T01:00:36;5.53;;;5.13;;
944;SDS011;459;48.676;9.034;2023-06-14T01:03:01;5.10;;;4.67;;
944;SDS011;459;48.676;9.034;2023-06-14T01:05:27;5.20;;;4.70;;
944;SDS011;459;48.676;9.034;2023-06-14T01:13:12;5.00;;;4.53;;
944;SDS011;459;48.676;9.034;2023-06-14T01:15:40;8.33;;;5.73;;
944;SDS011;459;48.676;9.034;2023-06-14T01:18:06;4.90;;;4.50;;
944;SDS011;459;48.676;9.034;2023-06-14T01:20:32;5.80;;;4.90;;
944;SDS011;459;48.676;9.034;2023-06-14T01:22:58;4.80;;;4.40;;
944;SDS011;459;48.676;9.034;2023-06-14T01:25:23;5.57;;;5.07;;
944;SDS011;459;48.676;9.034;2023-06-14T01:27:51;5.10;;;4.60;;
944;SDS011;459;48.676;9.034;2023-06-14T01:30:17;8.07;;;5.87;;
944;SDS011;459;48.676;9.034;2023-06-14T01:32:42;5.90;;;4.90;;
944;SDS011;459;48.676;9.034;2023-06-14T01:35:08;5.20;;;4.70;;
944;SDS011;459;48.676;9.034;2023-06-14T01:37:33;5.87;;;5.27;;
944;SDS011;459;48.676;9.034;2023-06-14T01:39:58;5.37;;;4.87;;
944;SDS011;459;48.676;9.034;2023-06-14T01:42:24;5.53;;;5.03;;
944;SDS011;459;48.676;9.034;2023-06-14T01:44:50;5.70;;;4.70;;
944;SDS011;459;48.676;9.034;2023-06-14T01:47:16;6.60;;;6.10;;
944;SDS011;459;48.676;9.034;2023-06-14T01:49:41;5.80;;;5.30;;
944;SDS011;459;48.676;9.034;2023-06-14T01:52:06;6.97;;;5.73;;
944;SDS011;459;48.676;9.034;2023-06-14T01:54:34;4.97;;;4.30;;
944;SDS011;459;48.676;9.034;2023-06-14T01:57:02;4.93;;;4.43;;
944;SDS011;459;48.676;9.034;2023-06-14T01:59:27;5.37;;;4.40;;
944;SDS011;459;48.676;9.034;2023-06-14T02:01:53;8.73;;;5.07;;
944;SDS011;459;48.676;9.034;2023-06-14T02:04:18;5.67;;;4.90;;
944;SDS011;459;48.676;9.034;2023-06-14T02:06:43;5.60;;;5.10;;
944;SDS011;459;48.676;9.034;2023-06-14T02:09:08;5.20;;;4.70;;
944;SDS011;459;48.676;9.034;2023-06-14T02:11:33;5.93;;;5.33;;
944;SDS011;459;48.676;9.034;2023-06-14T02:13:58;5.20;;;4.73;;
944;SDS011;459;48.676;9.034;2023-06-14T02:16:25;5.60;;;5.10;;
944;SDS011;459;48.676;9.034;2023-06-14T02:18:52;6.57;;;5.70;;
944;SDS011;459;48.676;9.034;2023-06-14T02:21:18;6.80;;;6.20;;
944;SDS011;459;48.676;9.034;2023-06-14T02:23:43;6.50;;;5.90;;
944;SDS011;459;48.676;9.034;2023-06-14T02:26:08;5.93;;;5.20;;
944;SDS011;459;48.676;9.034;2023-06-14T02:28:33;5.93;;;5.43;;
944;SDS011;459;48.676;9.034;2023-06-14T02:30:58;6.53;;;6.03;;
944;SDS011;459;48.676;9.034;2023-06-14T02:33:24;5.30;;;4.90;;
944;SDS011;459;48.676;9.034;2023-06-14T02:35:50;6.03;;;5.40;;
944;SDS011;459;48.676;9.034;2023-06-14T02:38:15;6.43;;;5.90;;
944;SDS011;459;48.676;9.034;2023-06-14T02:40:41;6.20;;;5.60;;
944;SDS011;459;48.676;9.034;2023-06-14T02:43:07;8.07;;;5.90;;
944;SDS011;459;48.676;9.034;2023-06-14T02:45:32;6.20;;;5.67;;
944;SDS011;459;48.676;9.034;2023-06-14T02:47:57;5.83;;;5.33;;
944;SDS011;459;48.676;9.034;2023-06-14T02:50:23;7.10;;;5.37;;
944;SDS011;459;48.676;9.034;2023-06-14T02:52:48;6.40;;;5.80;;
944;SDS011;459;48.676;9.034;2023-06-14T02:55:14;6.23;;;5.60;;
944;SDS011;459;48.676;9.034;2023-06-14T02:57:39;6.07;;;5.57;;
944;SDS011;459;48.676;9.034;2023-06-14T03:00:04;8.37;;;5.57;;
944;SDS011;459;48.676;9.034;2023-06-14T03:02:30;6.97;;;6.27;;
944;SDS011;459;48.676;9.034;2023-06-14T03:04:55;6.00;;;5.50;;
944;SDS011;459;48.676;9.034;2023-06-14T03:07:20;5.33;;;4.83;;
944;SDS011;459;48.676;9.034;2023-06-14T03:09:48;6.00;;;5.40;;
944;SDS011;459;48.676;9.034;2023-06-14T03:12:13;6.37;;;5.77;;
944;SDS011;459;48.676;9.034;2023-06-14T03:14:39;14.03;;;5.70;;
944;SDS011;459;48.676;9.034;2023-06-14T03:17:05;5.40;;;4.90;;
944;SDS011;459;48.676;9.034;2023-06-14T03:19:30;7.30;;;5.70;;
944;SDS011;459;48.676;9.034;2023-06-14T03:21:55;5.87;;;5.27;;
944;SDS011;459;48.676;9.034;2023-06-14T03:24:22;6.03;;;5.53;;
944;SDS011;459;48.676;9.034;2023-06-14T03:26:47;6.40;;;5.80;;
944;SDS011;459;48.676;9.034;2023-06-14T03:29:12;6.17;;;5.67;;
944;SDS011;459;48.676;9.034;2023-06-14T03:31:42;6.27;;;5.67;;
944;SDS011;459;48.676;9.034;2023-06-14T03:34:20;6.00;;;5.40;;
944;SDS011;459;48.676;9.034;2023-06-14T03:36:46;7.20;;;6.43;;
944;SDS011;459;48.676;9.034;2023-06-14T03:39:11;7.30;;;5.87;;
944;SDS011;459;48.676;9.034;2023-06-14T03:41:36;7.03;;;5.60;;
944;SDS011;459;48.676;9.034;2023-06-14T03:44:01;6.27;;;5.77;;
944;SDS011;459;48.676;9.034;2023-06-14T03:46:26;5.67;;;5.17;;
944;SDS011;459;48.676;9.034;2023-06-14T03:48:51;6.43;;;5.83;;
944;SDS011;459;48.676;9.034;2023-06-14T03:51:17;7.60;;;6.90;;
944;SDS011;459;48.676;9.034;2023-06-14T03:53:43;6.47;;;4.90;;
944;SDS011;459;48.676;9.034;2023-06-14T03:56:08;5.63;;;5.00;;
944;SDS011;459;48.676;9.034;2023-06-14T03:58:33;6.77;;;6.20;;
944;SDS011;459;48.676;9.034;2023-06-14T04:00:58;6.23;;;5.70;;
944;SDS011;459;48.676;9.034;2023-06-14T04:03:24;6.37;;;5.87;;
944;SDS011;459;48.676;9.034;2023-06-14T04:05:54;6.40;;;5.70;;
944;SDS011;459;48.676;9.034;2023-06-14T04:08:21;5.63;;;5.13;;
944;SDS011;459;48.676;9.034;2023-06-14T04:10:47;6.07;;;5.50;;
944;SDS011;459;48.676;9.034;2023-06-14T04:13:12;6.37;;;5.77;;
944;SDS011;459;48.676;9.034;2023-06-14T04:15:38;6.53;;;5.93;;
944;SDS011;459;48.676;9.034;2023-06-14T04:18:06;7.17;;;6.47;;
944;SDS011;459;48.676;9.034;2023-06-14T04:20:32;7.57;;;5.83;;
944;SDS011;459;48.676;9.034;2023-06-14T04:23:10;6.00;;;5.50;;
944;SDS011;459;48.676;9.034;2023-06-14T04:25:37;5.90;;;5.30;;
944;SDS011;459;48.676;9.034;2023-06-14T04:28:02;6.37;;;5.77;;
944;SDS011;459;48.676;9.034;2023-06-14T04:30:27;6.33;;;5.73;;
944;SDS011;459;48.676;9.034;2023-06-14T04:32:56;6.03;;;5.37;;
944;SDS011;459;48.676;9.034;2023-06-14T04:35:21;6.20;;;5.70;;
944;SDS011;459;48.676;9.034;2023-06-14T04:37:48;6.33;;;5.50;;
944;SDS011;459;48.676;9.034;2023-06-14T04:40:13;7.83;;;5.70;;
944;SDS011;459;48.676;9.034;2023-06-14T04:42:39;6.63;;;6.10;;
944;SDS011;459;48.676;9.034;2023-06-14T04:45:05;7.97;;;6.87;;
944;SDS011;459;48.676;9.034;2023-06-14T04:47:32;6.33;;;5.83;;
944;SDS011;459;48.676;9.034;2023-06-14T04:49:58;7.60;;;6.17;;
944;SDS011;459;48.676;9.034;2023-06-14T04:52:25;7.37;;;6.20;;
944;SDS011;459;48.676;9.034;2023-06-14T04:54:51;7.67;;;6.70;;
944;SDS011;459;48.676;9.034;2023-06-14T04:57:17;7.20;;;6.33;;
944;SDS011;459;48.676;9.034;2023-06-14T04:59:47;6.47;;;5.90;;
944;SDS011;459;48.676;9.034;2023-06-14T05:02:12;7.93;;;5.97;;
944;SDS011;459;48.676;9.034;2023-06-14T05:04:37;7.13;;;6.40;;
944;SDS011;459;48.676;9.034;2023-06-14T05:07:06;7.83;;;6.33;;
944;SDS011;459;48.676;9.034;2023-06-14T05:09:32;6.57;;;5.97;;
944;SDS011;459;48.676;9.034;2023-06-14T05:11:58;6.90;;;6.20;;
944;SDS011;459;48.676;9.034;2023-06-14T05:14:25;6.27;;;5.77;;
944;SDS011;459;48.676;9.034;2023-06-14T05:16:50;9.47;;;6.60;;
944;SDS011;459;48.676;9.034;2023-06-14T05:19:16;8.70;;;5.83;;
944;SDS011;459;48.676;9.034;2023-06-14T05:21:42;6.47;;;5.80;;
944;SDS011;459;48.676;9.034;2023-06-14T05:24:08;7.53;;;6.20;;
944;SDS011;459;48.676;9.034;2023-06-14T05:26:34;6.80;;;5.93;;
944;SDS011;459;48.676;9.034;2023-06-14T05:29:00;9.07;;;8.17;;
944;SDS011;459;48.676;9.034;2023-06-14T05:31:26;7.53;;;6.83;;
944;SDS011;459;48.676;9.034;2023-06-14T05:33:52;8.13;;;7.17;;
944;SDS011;459;48.676;9.034;2023-06-14T05:36:17;6.70;;;5.87;;
944;SDS011;459;48.676;9.034;2023-06-14T05:38:43;6.83;;;6.23;;
944;SDS011;459;48.676;9.034;2023-06-14T05:41:08;7.80;;;7.00;;
944;SDS011;459;48.676;9.034;2023-06-14T05:43:33;10.77;;;5.80;;
944;SDS011;459;48.676;9.034;2023-06-14T05:45:59;9.57;;;6.73;;
944;SDS011;459;48.676;9.034;2023-06-14T05:48:24;8.83;;;6.40;;
944;SDS011;459;48.676;9.034;2023-06-14T05:50:49;7.13;;;5.40;;
944;SDS011;459;48.676;9.034;2023-06-14T05:53:14;8.37;;;5.83;;
944;SDS011;459;48.676;9.034;2023-06-14T05:55:39;6.40;;;5.80;;
944;SDS011;459;48.676;9.034;2023-06-14T05:58:05;6.50;;;5.90;;
944;SDS011;459;48.676;9.034;2023-06-14T06:00:30;7.13;;;6.43;;
944;SDS011;459;48.676;9.034;2023-06-14T06:02:55;7.70;;;6.10;;
944;SDS011;459;48.676;9.034;2023-06-14T06:05:22;5.50;;;5.00;;
944;SDS011;459;48.676;9.034;2023-06-14T06:07:47;4.43;;;4.03;;
944;SDS011;459;48.676;9.034;2023-06-14T06:10:13;5.30;;;4.30;;
944;SDS011;459;48.676;9.034;2023-06-14T06:12:38;5.37;;;4.87;;
944;SDS011;459;48.676;9.034;2023-06-14T06:15:03;5.43;;;4.90;;
944;SDS011;459;48.676;9.034;2023-06-14T06:17:29;4.63;;;4.23;;
944;SDS011;459;48.676;9.034;2023-06-14T06:19:54;5.07;;;4.50;;
944;SDS011;459;48.676;9.034;2023-06-14T06:22:19;5.23;;;4.73;;
944;SDS011;459;48.676;9.034;2023-06-14T06:24:45;5.03;;;4.50;;
944;SDS011;459;48.676;9.034;2023-06-14T06:27:10;4.87;;;4.47;;
944;SDS011;459;48.676;9.034;2023-06-14T06:29:35;5.13;;;4.30;;
944;SDS011;459;48.676;9.034;2023-06-14T06:32:01;5.53;;;5.03;;
944;SDS011;459;48.676;9.034;2023-06-14T06:34:26;5.40;;;4.40;;
944;SDS011;459;48.676;9.034;2023-06-14T06:36:51;5.37;;;4.87;;
944;SDS011;459;48.676;9.034;2023-06-14T06:39:16;6.73;;;5.03;;
944;SDS011;459;48.676;9.034;2023-06-14T06:41:41;7.63;;;4.57;;
944;SDS011;459;48.676;9.034;2023-06-14T06:44:07;4.80;;;4.30;;
944;SDS011;459;48.676;9.034;2023-06-14T06:46:32;5.70;;;4.57;;
944;SDS011;459;48.676;9.034;2023-06-14T06:48:57;5.17;;;4.67;;
944;SDS011;459;48.676;9.034;2023-06-14T06:51:23;4.23;;;3.83;;
944;SDS011;459;48.676;9.034;2023-06-14T06:53:52;4.67;;;4.27;;
944;SDS011;459;48.676;9.034;2023-06-14T06:56:17;5.00;;;4.60;;
944;SDS011;459;48.676;9.034;2023-06-14T06:58:42;5.80;;;4.27;;
944;SDS011;459;48.676;9.034;2023-06-14T07:01:07;5.30;;;4.77;;
944;SDS011;459;48.676;9.034;2023-06-14T07:03:34;5.53;;;4.67;;
944;SDS011;459;48.676;9.034;2023-06-14T07:05:59;5.20;;;4.70;;
944;SDS011;459;48.676;9.034;2023-06-14T07:08:24;4.43;;;4.03;;
944;SDS011;459;48.676;9.034;2023-06-14T07:10:49;6.60;;;4.80;;
944;SDS011;459;48.676;9.034;2023-06-14T07:13:14;5.00;;;4.03;;
944;SDS011;459;48.676;9.034;2023-06-14T07:15:40;5.37;;;4.80;;
944;SDS011;459;48.676;9.034;2023-06-14T07:18:05;6.73;;;5.47;;
944;SDS011;459;48.676;9.034;2023-06-14T07:20:31;5.93;;;4.70;;
944;SDS011;459;48.676;9.034;2023-06-14T07:22:58;6.90;;;4.20;;
944;SDS011;459;48.676;9.034;2023-06-14T07:25:23;7.90;;;4.83;;
944;SDS011;459;48.676;9.034;2023-06-14T07:27:48;4.90;;;4.40;;
944;SDS011;459;48.676;9.034;2023-06-14T07:30:13;5.87;;;5.37;;
944;SDS011;459;48.676;9.034;2023-06-14T07:32:38;5.07;;;4.60;;
944;SDS011;459;48.676;9.034;2023-06-14T07:35:04;5.50;;;4.43;;
944;SDS011;459;48.676;9.034;2023-06-14T07:37:29;5.40;;;4.90;;
944;SDS011;459;48.676;9.034;2023-06-14T07:39:54;5.20;;;4.67;;
944;SDS011;459;48.676;9.034;2023-06-14T07:42:20;4.70;;;4.20;;
944;SDS011;459;48.676;9.034;2023-06-14T07:44:45;8.80;;;5.87;;
944;SDS011;459;48.676;9.034;2023-06-14T07:47:11;5.10;;;4.63;;
944;SDS011;459;48.676;9.034;2023-06-14T07:49:36;5.23;;;4.60;;
944;SDS011;459;48.676;9.034;2023-06-14T07:52:01;5.10;;;4.33;;
944;SDS011;459;48.676;9.034;2023-06-14T07:54:26;4.63;;;4.23;;
944;SDS011;459;48.676;9.034;2023-06-14T07:56:52;5.57;;;4.97;;
944;SDS011;459;48.676;9.034;2023-06-14T07:59:17;5.50;;;4.30;;
944;SDS011;459;48.676;9.034;2023-06-14T08:01:43;4.97;;;4.47;;
944;SDS011;459;48.676;9.034;2023-06-14T08:04:12;5.53;;;5.03;;
944;SDS011;459;48.676;9.034;2023-06-14T08:06:37;5.50;;;5.00;;
944;SDS011;459;48.676;9.034;2023-06-14T08:09:02;5.23;;;4.73;;
944;SDS011;459;48.676;9.034;2023-06-14T08:11:27;5.97;;;4.90;;
944;SDS011;459;48.676;9.034;2023-06-14T08:13:53;5.40;;;4.90;;
944;SDS011;459;48.676;9.034;2023-06-14T08:16:18;5.60;;;5.10;;
944;SDS011;459;48.676;9.034;2023-06-14T08:18:43;6.23;;;5.63;;
944;SDS011;459;48.676;9.034;2023-06-14T08:21:08;8.20;;;6.87;;
944;SDS011;459;48.676;9.034;2023-06-14T08:23:34;6.97;;;5.53;;
944;SDS011;459;48.676;9.034;2023-06-14T08:25:59;6.10;;;5.43;;
944;SDS011;459;48.676;9.034;2023-06-14T08:28:26;5.50;;;5.00;;
944;SDS011;459;48.676;9.034;2023-06-14T08:30:51;5.20;;;4.70;;
944;SDS011;459;48.676;9.034;2023-06-14T08:33:16;5.73;;;5.20;;
944;SDS011;459;48.676;9.034;2023-06-14T08:35:42;6.60;;;5.30;;
944;SDS011;459;48.676;9.034;2023-06-14T08:38:07;5.50;;;5.00;;
944;SDS011;459;48.676;9.034;2023-06-14T08:40:32;5.17;;;4.77;;
944;SDS011;459;48.676;9.034;2023-06-14T08:43:01;6.00;;;5.40;;
944;SDS011;459;48.676;9.034;2023-06-14T08:45:26;5.83;;;5.17;;
944;SDS011;459;48.676;9.034;2023-06-14T08:47:52;4.93;;;4.53;;
944;SDS011;459;48.676;9.034;2023-06-14T08:50:22;5.43;;;4.43;;
944;SDS011;459;48.676;9.034;2023-06-14T08:52:49;5.60;;;4.77;;
944;SDS011;459;48.676;9.034;2023-06-14T08:55:17;6.50;;;5.57;;
944;SDS011;459;48.676;9.034;2023-06-14T08:57:43;6.07;;;5.47;;
944;SDS011;459;48.676;9.034;2023-06-14T09:00:09;5.87;;;5.23;;
944;SDS011;459;48.676;9.034;2023-06-14T09:02:38;6.70;;;6.10;;
944;SDS011;459;48.676;9.034;2023-06-14T09:05:08;5.63;;;5.13;;
944;SDS011;459;48.676;9.034;2023-06-14T09:07:33;5.00;;;4.60;;
944;SDS011;459;48.676;9.034;2023-06-14T09:10:11;6.50;;;5.40;;
944;SDS011;459;48.676;9.034;2023-06-14T09:12:36;5.43;;;4.93;;
944;SDS011;459;48.676;9.034;2023-06-14T09:15:03;6.23;;;5.33;;
944;SDS011;459;48.676;9.034;2023-06-14T09:17:40;5.83;;;5.33;;
944;SDS011;459;48.676;9.034;2023-06-14T09:20:06;5.30;;;4.80;;
944;SDS011;459;48.676;9.034;2023-06-14T09:22:34;5.60;;;5.10;;
944;SDS011;459;48.676;9.034;2023-06-14T09:24:59;6.10;;;5.53;;
944;SDS011;459;48.676;9.034;2023-06-14T09:27:25;5.90;;;5.40;;
944;SDS011;459;48.676;9.034;2023-06-14T09:29:51;6.80;;;6.10;;
944;SDS011;459;48.676;9.034;2023-06-14T09:32:16;6.80;;;5.60;;
944;SDS011;459;48.676;9.034;2023-06-14T09:34:41;7.20;;;5.17;;
944;SDS011;459;48.676;9.034;2023-06-14T09:37:06;6.10;;;5.60;;
944;SDS011;459;48.676;9.034;2023-06-14T09:39:32;5.53;;;5.13;;
944;SDS011;459;48.676;9.034;2023-06-14T09:41:57;5.87;;;5.27;;
944;SDS011;459;48.676;9.034;2023-06-14T09:44:22;5.93;;;5.33;;
944;SDS011;459;48.676;9.034;2023-06-14T09:46:50;5.60;;;5.10;;
944;SDS011;459;48.676;9.034;2023-06-14T09:49:15;5.70;;;4.77;;
944;SDS011;459;48.676;9.034;2023-06-14T09:51:44;8.90;;;6.70;;
944;SDS011;459;48.676;9.034;2023-06-14T09:54:12;6.83;;;5.77;;
944;SDS011;459;48.676;9.034;2023-06-14T09:56:40;6.50;;;5.40;;
944;SDS011;459;48.676;9.034;2023-06-14T09:59:06;4.90;;;4.40;;
944;SDS011;459;48.676;9.034;2023-06-14T10:01:34;6.10;;;5.60;;
944;SDS011;459;48.676;9.034;2023-06-14T10:06:25;5.43;;;4.90;;
944;SDS011;459;48.676;9.034;2023-06-14T10:08:55;4.43;;;4.03;;
944;SDS011;459;48.676;9.034;2023-06-14T10:11:21;5.70;;;4.97;;
944;SDS011;459;48.676;9.034;2023-06-14T10:13:46;4.30;;;3.90;;
944;SDS011;459;48.676;9.034;2023-06-14T10:18:50;5.17;;;4.70;;
944;SDS011;459;48.676;9.034;2023-06-14T10:23:48;5.13;;;4.63;;
944;SDS011;459;48.676;9.034;2023-06-14T10:26:21;5.73;;;5.10;;
944;SDS011;459;48.676;9.034;2023-06-14T10:31:39;6.03;;;5.53;;
944;SDS011;459;48.676;9.034;2023-06-14T10:34:05;8.33;;;4.97;;
944;SDS011;459;48.676;9.034;2023-06-14T10:36:30;5.80;;;5.20;;
944;SDS011;459;48.676;9.034;2023-06-14T10:38:56;5.40;;;4.40;;
944;SDS011;459;48.676;9.034;2023-06-14T10:41:22;5.23;;;4.70;;
944;SDS011;459;48.676;9.034;2023-06-14T10:43:47;4.97;;;4.57;;
944;SDS011;459;48.676;9.034;2023-06-14T10:46:13;5.60;;;5.10;;
944;SDS011;459;48.676;9.034;2023-06-14T10:48:42;5.50;;;5.10;;
944;SDS011;459;48.676;9.034;2023-06-14T10:51:15;5.30;;;4.73;;
944;SDS011;459;48.676;9.034;2023-06-14T10:53:41;5.63;;;5.17;;
944;SDS011;459;48.676;9.034;2023-06-14T10:56:07;4.30;;;3.90;;
944;SDS011;459;48.676;9.034;2023-06-14T10:58:33;5.20;;;4.70;;
944;SDS011;459;48.676;9.034;2023-06-14T11:00:58;5.90;;;5.30;;
944;SDS011;459;48.676;9.034;2023-06-14T11:06:01;5.73;;;5.13;;
944;SDS011;459;48.676;9.034;2023-06-14T11:11:20;6.10;;;5.50;;
944;SDS011;459;48.676;9.034;2023-06-14T11:13:46;5.10;;;4.70;;
944;SDS011;459;48.676;9.034;2023-06-14T11:16:12;6.03;;;5.43;;
944;SDS011;459;48.676;9.034;2023-06-14T11:18:38;5.50;;;5.10;;
944;SDS011;459;48.676;9.034;2023-06-14T11:21:03;5.63;;;5.13;;
944;SDS011;459;48.676;9.034;2023-06-14T11:23:29;5.10;;;4.43;;
944;SDS011;459;48.676;9.034;2023-06-14T11:25:54;5.50;;;5.00;;
944;SDS011;459;48.676;9.034;2023-06-14T11:28:19;5.57;;;4.63;;
944;SDS011;459;48.676;9.034;2023-06-14T11:30:46;5.17;;;4.67;;
944;SDS011;459;48.676;9.034;2023-06-14T11:33:14;5.40;;;4.90;;
944;SDS011;459;48.676;9.034;2023-06-14T11:35:42;5.67;;;5.17;;
944;SDS011;459;48.676;9.034;2023-06-14T11:38:07;7.20;;;5.40;;
944;SDS011;459;48.676;9.034;2023-06-14T11:40:32;5.50;;;5.00;;
944;SDS011;459;48.676;9.034;2023-06-14T11:42:58;5.40;;;4.90;;
944;SDS011;459;48.676;9.034;2023-06-14T11:45:25;6.20;;;5.67;;
944;SDS011;459;48.676;9.034;2023-06-14T11:47:50;5.90;;;5.40;;
944;SDS011;459;48.676;9.034;2023-06-14T11:50:15;5.47;;;4.90;;
944;SDS011;459;48.676;9.034;2023-06-14T11:52:40;8.03;;;5.37;;
944;SDS011;459;48.676;9.034;2023-06-14T11:55:06;5.43;;;5.03;;
944;SDS011;459;48.676;9.034;2023-06-14T11:57:35;4.93;;;4.53;;
944;SDS011;459;48.676;9.034;2023-06-14T12:00:04;5.17;;;4.67;;
944;SDS011;459;48.676;9.034;2023-06-14T12:02:40;5.30;;;4.90;;
944;SDS011;459;48.676;9.034;2023-06-14T12:05:05;5.87;;;5.33;;
944;SDS011;459;48.676;9.034;2023-06-14T12:07:38;5.13;;;4.73;;
944;SDS011;459;48.676;9.034;2023-06-14T12:10:05;5.37;;;4.87;;
944;SDS011;459;48.676;9.034;2023-06-14T12:12:37;5.27;;;4.77;;
944;SDS011;459;48.676;9.034;2023-06-14T12:15:03;5.17;;;4.70;;
944;SDS011;459;48.676;9.034;2023-06-14T12:17:31;5.60;;;5.10;;
944;SDS011;459;48.676;9.034;2023-06-14T12:19:57;4.93;;;4.60;;
944;SDS011;459;48.676;9.034;2023-06-14T12:22:22;5.88;;;5.38;;
944;SDS011;459;48.676;9.034;2023-06-14T12:24:48;5.50;;;5.00;;
944;SDS011;459;48.676;9.034;2023-06-14T12:27:13;5.70;;;5.20;;
944;SDS011;459;48.676;9.034;2023-06-14T12:29:40;6.00;;;5.00;;
944;SDS011;459;48.676;9.034;2023-06-14T12:32:05;4.43;;;4.03;;
944;SDS011;459;48.676;9.034;2023-06-14T12:34:31;4.50;;;4.10;;
944;SDS011;459;48.676;9.034;2023-06-14T12:36:57;5.07;;;4.67;;
944;SDS011;459;48.676;9.034;2023-06-14T12:39:23;5.77;;;4.40;;
944;SDS011;459;48.676;9.034;2023-06-14T12:41:49;5.23;;;4.43;;
944;SDS011;459;48.676;9.034;2023-06-14T12:44:14;4.70;;;4.30;;
944;SDS011;459;48.676;9.034;2023-06-14T12:46:40;5.03;;;4.63;;
944;SDS011;459;48.676;9.034;2023-06-14T12:49:07;5.93;;;4.33;;
944;SDS011;459;48.676;9.034;2023-06-14T12:51:33;5.10;;;4.53;;
944;SDS011;459;48.676;9.034;2023-06-14T12:53:58;4.83;;;4.40;;
944;SDS011;459;48.676;9.034;2023-06-14T12:56:23;4.70;;;4.20;;
944;SDS011;459;48.676;9.034;2023-06-14T12:58:48;6.50;;;3.57;;
944;SDS011;459;48.676;9.034;2023-06-14T13:01:13;4.47;;;4.07;;
944;SDS011;459;48.676;9.034;2023-06-14T13:03:39;4.77;;;4.37;;
944;SDS011;459;48.676;9.034;2023-06-14T13:06:04;5.30;;;4.80;;
944;SDS011;459;48.676;9.034;2023-06-14T13:08:30;4.70;;;4.30;;
944;SDS011;459;48.676;9.034;2023-06-14T13:10:56;5.27;;;4.10;;
944;SDS011;459;48.676;9.034;2023-06-14T13:13:21;5.70;;;4.90;;
944;SDS011;459;48.676;9.034;2023-06-14T13:15:46;4.40;;;4.00;;
944;SDS011;459;48.676;9.034;2023-06-14T13:18:12;6.20;;;4.13;;
944;SDS011;459;48.676;9.034;2023-06-14T13:20:40;5.30;;;4.60;;
944;SDS011;459;48.676;9.034;2023-06-14T13:23:05;5.50;;;4.57;;
944;SDS011;459;48.676;9.034;2023-06-14T13:25:32;5.37;;;4.20;;
944;SDS011;459;48.676;9.034;2023-06-14T13:27:58;4.13;;;3.83;;
944;SDS011;459;48.676;9.034;2023-06-14T13:30:23;4.53;;;4.17;;
944;SDS011;459;48.676;9.034;2023-06-14T13:32:48;4.80;;;4.40;;
944;SDS011;459;48.676;9.034;2023-06-14T13:35:13;5.33;;;4.93;;
944;SDS011;459;48.676;9.034;2023-06-14T13:37:38;4.40;;;4.10;;
944;SDS011;459;48.676;9.034;2023-06-14T13:40:04;4.63;;;4.07;;
944;SDS011;459;48.676;9.034;2023-06-14T13:42:30;5.07;;;4.43;;
944;SDS011;459;48.676;9.034;2023-06-14T13:44:57;3.90;;;3.50;;
944;SDS011;459;48.676;9.034;2023-06-14T13:47:22;4.73;;;4.20;;
944;SDS011;459;48.676;9.034;2023-06-14T13:49:47;4.80;;;4.40;;
944;SDS011;459;48.676;9.034;2023-06-14T13:52:12;4.90;;;4.50;;
944;SDS011;459;48.676;9.034;2023-06-14T13:54:38;5.60;;;4.60;;
944;SDS011;459;48.676;9.034;2023-06-14T13:57:03;5.63;;;3.90;;
944;SDS011;459;48.676;9.034;2023-06-14T13:59:29;5.87;;;5.00;;
944;SDS011;459;48.676;9.034;2023-06-14T14:01:54;8.17;;;4.23;;
944;SDS011;459;48.676;9.034;2023-06-14T14:04:19;6.17;;;4.70;;
944;SDS011;459;48.676;9.034;2023-06-14T14:06:45;4.43;;;4.03;;
944;SDS011;459;48.676;9.034;2023-06-14T14:09:11;6.57;;;4.50;;
944;SDS011;459;48.676;9.034;2023-06-14T14:11:36;4.20;;;3.80;;
944;SDS011;459;48.676;9.034;2023-06-14T14:14:01;4.37;;;3.40;;
944;SDS011;459;48.676;9.034;2023-06-14T14:16:27;5.17;;;4.77;;
944;SDS011;459;48.676;9.034;2023-06-14T14:18:52;4.97;;;4.47;;
944;SDS011;459;48.676;9.034;2023-06-14T14:21:17;4.93;;;4.53;;
944;SDS011;459;48.676;9.034;2023-06-14T14:23:42;5.97;;;4.57;;
944;SDS011;459;48.676;9.034;2023-06-14T14:26:07;5.03;;;4.60;;
944;SDS011;459;48.676;9.034;2023-06-14T14:28:32;4.87;;;4.37;;
944;SDS011;459;48.676;9.034;2023-06-14T14:30:58;4.70;;;4.20;;
944;SDS011;459;48.676;9.034;2023-06-14T14:33:23;4.80;;;4.40;;
944;SDS011;459;48.676;9.034;2023-06-14T14:35:48;4.77;;;4.30;;
944;SDS011;459;48.676;9.034;2023-06-14T14:38:14;5.17;;;4.00;;
944;SDS011;459;48.676;9.034;2023-06-14T14:40:40;6.77;;;3.83;;
944;SDS011;459;48.676;9.034;2023-06-14T14:43:06;5.03;;;4.50;;
944;SDS011;459;48.676;9.034;2023-06-14T14:45:31;4.27;;;3.97;;
944;SDS011;459;48.676;9.034;2023-06-14T14:47:56;5.80;;;4.67;;
944;SDS011;459;48.676;9.034;2023-06-14T14:50:21;9.23;;;4.33;;
944;SDS011;459;48.676;9.034;2023-06-14T14:52:47;4.50;;;4.10;;
944;SDS011;459;48.676;9.034;2023-06-14T14:55:12;4.90;;;4.20;;
944;SDS011;459;48.676;9.034;2023-06-14T14:57:37;4.83;;;4.43;;
944;SDS011;459;48.676;9.034;2023-06-14T15:00:05;4.63;;;4.23;;
944;SDS011;459;48.676;9.034;2023-06-14T15:02:47;4.90;;;4.50;;
944;SDS011;459;48.676;9.034;2023-06-14T15:05:13;4.80;;;4.10;;
944;SDS011;459;48.676;9.034;2023-06-14T15:07:38;4.43;;;4.10;;
944;SDS011;459;48.676;9.034;2023-06-14T15:10:05;4.80;;;3.60;;
944;SDS011;459;48.676;9.034;2023-06-14T15:12:30;4.37;;;4.07;;
944;SDS011;459;48.676;9.034;2023-06-14T15:14:56;5.10;;;4.60;;
944;SDS011;459;48.676;9.034;2023-06-14T15:17:21;5.40;;;4.90;;
944;SDS011;459;48.676;9.034;2023-06-14T15:19:47;4.30;;;3.90;;
944;SDS011;459;48.676;9.034;2023-06-14T15:22:12;4.73;;;4.33;;
944;SDS011;459;48.676;9.034;2023-06-14T15:24:38;5.47;;;4.60;;
944;SDS011;459;48.676;9.034;2023-06-14T15:27:03;4.60;;;4.10;;
944;SDS011;459;48.676;9.034;2023-06-14T15:29:28;7.23;;;3.80;;
944;SDS011;459;48.676;9.034;2023-06-14T15:31:53;4.60;;;4.20;;
944;SDS011;459;48.676;9.034;2023-06-14T15:34:20;5.00;;;4.50;;
944;SDS011;459;48.676;9.034;2023-06-14T15:36:45;4.00;;;3.70;;
944;SDS011;459;48.676;9.034;2023-06-14T15:39:10;4.57;;;4.03;;
944;SDS011;459;48.676;9.034;2023-06-14T15:41:36;4.53;;;4.13;;
944;SDS011;459;48.676;9.034;2023-06-14T15:44:01;4.50;;;4.10;;
944;SDS011;459;48.676;9.034;2023-06-14T15:46:26;4.70;;;4.30;;
944;SDS011;459;48.676;9.034;2023-06-14T15:48:51;7.50;;;3.90;;
944;SDS011;459;48.676;9.034;2023-06-14T15:51:16;5.30;;;4.80;;
944;SDS011;459;48.676;9.034;2023-06-14T15:53:42;5.93;;;4.27;;
944;SDS011;459;48.676;9.034;2023-06-14T15:56:07;4.60;;;4.20;;
944;SDS011;459;48.676;9.034;2023-06-14T15:58:32;4.77;;;4.37;;